Time;durP1;ratioP1;P1;durP2;ratioP2;P2;SDS_P1;SDS_P2;PMS_P1;PMS_P2;Temp;Humidity;BMP_temperature;BMP_pressure;BME280_temperature;BME280_humidity;BME280_pressure;Samples;Min_cycle;Max_cycle;Signal;HPM_P1;HPM_P2
2023/01/01 00:02:24;;;;;;;94.07;69.80;;;;;;;7.00;100.00;96730.13;4953979;28;105344;-69
2023/01/01 00:04:52;;;;;;;93.27;69.33;;;;;;;7.10;100.00;96730.41;4953804;28;101975;-69
2023/01/01 00:07:20;;;;;;;98.80;70.87;;;;;;;7.13;100.00;96728.13;4953817;28;105183;-69
2023/01/01 00:12:32;;;;;;;97.33;69.60;;;;;;;6.81;100.00;96736.44;4954188;28;102095;-69
2023/01/01 00:15:00;;;;;;;96.70;69.60;;;;;;;6.71;100.00;96738.75;4954363;28;103936;-69
2023/01/01 00:17:29;;;;;;;102.00;69.07;;;;;;;6.56;100.00;96744.38;4953615;28;104968;-69
2023/01/01 00:19:56;;;;;;;86.60;59.57;;;;;;;6.70;100.00;96740.56;4937958;28;101942;-69
2023/01/01 00:22:26;;;;;;;61.10;46.30;;;;;;;7.05;100.00;96738.19;4957240;28;104830;-69
2023/01/01 00:24:53;;;;;;;52.33;38.93;;;;;;;7.21;100.00;96735.75;4953960;28;101869;-69
2023/01/01 00:27:22;;;;;;;33.27;25.07;;;;;;;7.88;100.00;96734.72;4953385;28;105150;-69
2023/01/01 00:29:49;;;;;;;40.00;30.50;;;;;;;8.08;100.00;96729.97;4953434;28;105481;-69
2023/01/01 00:32:15;;;;;;;47.17;35.77;;;;;;;7.80;100.00;96741.13;4953746;28;101908;-69
2023/01/01 00:34:42;;;;;;;43.33;31.27;;;;;;;7.83;100.00;96746.00;4953968;28;104955;-69
2023/01/01 00:37:10;;;;;;;49.13;36.77;;;;;;;7.73;100.00;96737.78;4953470;28;105133;-69
2023/01/01 00:39:38;;;;;;;48.17;36.90;;;;;;;7.59;100.00;96732.88;4954243;28;101874;-69
2023/01/01 00:42:05;;;;;;;50.90;39.00;;;;;;;7.44;100.00;96740.41;4971912;28;102582;-69
2023/01/01 00:44:32;;;;;;;44.03;33.03;;;;;;;7.36;100.00;96735.41;4956774;28;105099;-69
2023/01/01 00:47:00;;;;;;;42.47;32.47;;;;;;;7.14;100.00;96740.31;4953830;28;105459;-69
2023/01/01 00:49:28;;;;;;;50.27;37.30;;;;;;;7.15;100.00;96743.78;4953129;28;105221;-69
2023/01/01 00:51:54;;;;;;;44.37;34.13;;;;;;;6.94;100.00;96744.22;4969835;28;101881;-69
2023/01/01 00:54:21;;;;;;;41.63;31.57;;;;;;;6.79;100.00;96747.22;4953520;28;105215;-69
2023/01/01 00:56:49;;;;;;;47.27;34.93;;;;;;;6.63;100.00;96733.72;4952958;28;105120;-69
2023/01/01 00:59:16;;;;;;;48.07;37.50;;;;;;;6.63;100.00;96736.38;4953379;28;101992;-69
2023/01/01 01:01:43;;;;;;;54.17;41.37;;;;;;;6.19;100.00;96733.91;4953565;28;105290;-69
2023/01/01 01:04:10;;;;;;;60.27;44.60;;;;;;;5.91;100.00;96742.22;4952553;28;105133;-69
2023/01/01 01:06:37;;;;;;;60.70;43.83;;;;;;;5.64;100.00;96753.91;4956950;28;101778;-69
2023/01/01 01:09:06;;;;;;;56.63;42.23;;;;;;;5.73;100.00;96759.75;4952731;28;103860;-69
2023/01/01 01:11:34;;;;;;;45.43;36.47;;;;;;;5.76;100.00;96772.50;4953439;28;101864;-69
2023/01/01 01:14:02;;;;;;;40.93;29.73;;;;;;;5.73;100.00;96768.47;4953302;28;104771;-69
2023/01/01 01:16:31;;;;;;;34.47;26.67;;;;;;;5.83;100.00;96773.34;4952585;28;105039;-69
2023/01/01 01:19:00;;;;;;;35.77;24.67;;;;;;;5.79;100.00;96780.00;4953847;28;101892;-69
2023/01/01 01:21:29;;;;;;;29.03;21.67;;;;;;;5.60;100.00;96788.81;4953480;28;104761;-69
2023/01/01 01:23:58;;;;;;;30.13;22.37;;;;;;;5.59;100.00;96784.56;4952519;28;105056;-69
2023/01/01 01:26:27;;;;;;;29.97;22.70;;;;;;;5.55;100.00;96784.19;4953364;28;101884;-69
2023/01/01 01:28:55;;;;;;;30.27;22.93;;;;;;;5.60;100.00;96775.63;4955048;28;105334;-69
2023/01/01 01:31:26;;;;;;;33.07;23.77;;;;;;;5.67;100.00;96776.44;4953043;28;101849;-69
2023/01/01 01:33:53;;;;;;;29.40;21.60;;;;;;;5.63;100.00;96788.41;4953011;28;105239;-69
2023/01/01 01:36:21;;;;;;;27.50;22.07;;;;;;;5.44;100.00;96784.00;4952669;28;105559;-69
2023/01/01 01:38:47;;;;;;;28.03;22.20;;;;;;;5.30;100.00;96798.28;4951688;28;102039;-69
2023/01/01 01:41:15;;;;;;;31.70;22.47;;;;;;;5.19;100.00;96804.19;4953345;28;105083;-69
2023/01/01 01:43:52;;;;;;;30.87;22.13;;;;;;;5.15;100.00;96806.44;4970559;28;103070;-69
2023/01/01 01:46:26;;;;;;;33.07;25.17;;;;;;;5.00;100.00;96802.38;4970595;28;101664;-69
2023/01/01 01:48:56;;;;;;;32.90;24.13;;;;;;;5.17;100.00;96803.56;4952753;28;105348;-69
2023/01/01 01:51:30;;;;;;;33.57;25.07;;;;;;;5.15;100.00;96800.34;4973176;28;103125;-69
2023/01/01 01:54:02;;;;;;;35.37;27.13;;;;;;;5.13;100.00;96799.75;4970687;28;102590;-69
2023/01/01 01:56:36;;;;;;;43.00;28.27;;;;;;;4.97;100.00;96798.31;4969972;28;102809;-69
2023/01/01 01:59:03;;;;;;;49.70;31.17;;;;;;;5.08;100.00;96804.81;4952534;28;102046;-69
2023/01/01 02:01:31;;;;;;;43.63;29.83;;;;;;;4.86;100.00;96816.59;4952786;28;104917;-69
2023/01/01 02:04:02;;;;;;;38.27;27.20;;;;;;;4.97;100.00;96823.88;4969937;28;103063;-69
2023/01/01 02:06:30;;;;;;;39.20;26.10;;;;;;;5.54;100.00;96821.31;4952861;28;102226;-69
2023/01/01 02:09:00;;;;;;;37.37;26.33;;;;;;;5.66;100.00;96823.09;4969678;28;102516;-69
2023/01/01 02:11:27;;;;;;;37.73;27.27;;;;;;;5.76;100.00;96827.91;4973042;28;102609;-69
2023/01/01 02:13:56;;;;;;;35.53;25.90;;;;;;;5.96;100.00;96836.59;4952635;28;103908;-69
2023/01/01 02:16:29;;;;;;;42.57;30.60;;;;;;;6.38;100.00;96825.41;4969789;28;103163;-69
2023/01/01 02:19:03;;;;;;;40.40;29.40;;;;;;;6.49;100.00;96828.13;4952321;28;102150;-69
2023/01/01 02:21:34;;;;;;;44.63;32.07;;;;;;;6.39;100.00;96827.00;4970228;28;102863;-69
2023/01/01 02:24:21;;;;;;;43.77;30.90;;;;;;;6.31;100.00;96824.59;4969062;28;102547;-69
2023/01/01 02:26:56;;;;;;;43.03;29.17;;;;;;;6.19;100.00;96823.66;4969696;28;101787;-69
2023/01/01 02:29:32;;;;;;;38.17;26.53;;;;;;;5.85;100.00;96824.84;4969607;28;102294;-69
2023/01/01 02:32:05;;;;;;;32.67;22.77;;;;;;;5.90;100.00;96832.97;4951666;28;105785;-69
2023/01/01 02:34:37;;;;;;;24.83;19.20;;;;;;;6.70;100.00;96834.91;4973180;28;101671;-69
2023/01/01 02:37:08;;;;;;;22.63;16.17;;;;;;;6.92;100.00;96833.53;4951621;28;105610;-69
2023/01/01 02:39:39;;;;;;;17.37;12.93;;;;;;;7.41;100.00;96828.16;4952280;28;101772;-69
2023/01/01 02:42:07;;;;;;;18.63;13.40;;;;;;;7.79;100.00;96826.88;4952120;28;105198;-69
2023/01/01 02:44:41;;;;;;;18.70;14.47;;;;;;;7.70;100.00;96820.28;4951698;28;105088;-69
2023/01/01 02:47:11;;;;;;;18.23;14.80;;;;;;;7.52;100.00;96822.16;4951753;28;101771;-69
2023/01/01 02:49:45;;;;;;;22.03;16.17;;;;;;;7.29;100.00;96829.88;4969133;28;102656;-69
2023/01/01 02:52:21;;;;;;;19.17;15.53;;;;;;;7.25;100.00;96823.44;4951316;28;105411;-69
2023/01/01 02:54:56;;;;;;;18.50;14.10;;;;;;;7.25;100.00;96813.66;4969650;28;101930;-69
2023/01/01 02:57:36;;;;;;;20.37;14.20;;;;;;;7.17;100.00;96813.13;4954633;28;105007;-69
2023/01/01 03:00:23;;;;;;;19.70;15.17;;;;;;;7.12;100.00;96815.63;4951938;28;101792;-69
2023/01/01 03:03:16;;;;;;;21.20;16.10;;;;;;;6.71;100.00;96810.09;4951869;28;105291;-69
2023/01/01 03:08:46;;;;;;;27.70;20.70;;;;;;;5.66;100.00;96820.44;4951442;28;102159;-69
2023/01/01 03:11:17;;;;;;;26.60;20.10;;;;;;;5.63;100.00;96831.41;4952146;28;105391;-69
2023/01/01 03:13:49;;;;;;;25.73;20.13;;;;;;;5.60;100.00;96816.03;4968899;28;102608;-69
2023/01/01 03:16:24;;;;;;;26.47;19.33;;;;;;;5.49;100.00;96823.75;4969397;28;101698;-69
2023/01/01 03:19:10;;;;;;;27.80;20.57;;;;;;;5.17;100.00;96817.56;4951453;28;105236;-69
2023/01/01 03:21:43;;;;;;;29.60;21.07;;;;;;;5.06;100.00;96818.19;4972143;28;102774;-69
2023/01/01 03:24:17;;;;;;;28.03;20.57;;;;;;;5.10;100.00;96822.03;4969582;28;102335;-69
2023/01/01 03:26:48;;;;;;;27.63;21.27;;;;;;;5.03;100.00;96812.53;4968883;28;102779;-69
2023/01/01 03:29:16;;;;;;;29.20;21.40;;;;;;;4.90;100.00;96810.72;4969095;28;101742;-69
2023/01/01 03:31:48;;;;;;;29.97;21.87;;;;;;;4.95;100.00;96818.81;4969097;28;102337;-69
2023/01/01 03:34:22;;;;;;;29.30;22.23;;;;;;;4.94;100.00;96826.91;4934583;28;106184;-69
2023/01/01 03:36:54;;;;;;;32.37;21.50;;;;;;;4.77;100.00;96818.66;4951475;28;101835;-69
2023/01/01 03:39:25;;;;;;;27.77;21.97;;;;;;;4.85;100.00;96821.06;4951360;28;104794;-69
2023/01/01 03:41:58;;;;;;;31.70;22.10;;;;;;;4.83;100.00;96820.47;4951006;28;105190;-69
2023/01/01 03:44:31;;;;;;;29.97;22.97;;;;;;;4.72;100.00;96820.25;4954449;28;101899;-69
2023/01/01 03:47:00;;;;;;;29.83;22.43;;;;;;;4.73;100.00;96816.59;4951087;28;105495;-69
2023/01/01 03:49:29;;;;;;;30.63;22.80;;;;;;;4.54;100.00;96817.44;4951330;28;101916;-69
2023/01/01 03:52:06;;;;;;;32.53;23.30;;;;;;;4.50;100.00;96811.75;4951261;28;104944;-69
2023/01/01 03:54:43;;;;;;;30.50;23.20;;;;;;;4.59;100.00;96823.69;4950603;28;105459;-69
2023/01/01 03:57:16;;;;;;;31.77;23.17;;;;;;;4.49;100.00;96825.13;4951355;28;101886;-69
2023/01/01 03:59:52;;;;;;;31.73;22.73;;;;;;;4.59;100.00;96821.06;4951090;28;102983;-69
2023/01/01 04:02:25;;;;;;;34.23;23.97;;;;;;;4.37;100.00;96826.72;4953148;28;105000;-69
2023/01/01 04:04:52;;;;;;;32.07;24.17;;;;;;;4.51;100.00;96829.16;4954392;28;101916;-69
2023/01/01 04:07:20;;;;;;;32.20;24.53;;;;;;;4.40;100.00;96836.84;4957496;28;104738;-69
2023/01/01 04:09:52;;;;;;;34.07;24.47;;;;;;;4.39;100.00;96837.88;4937590;28;101980;-69
2023/01/01 04:12:21;;;;;;;30.87;23.60;;;;;;;4.39;100.00;96841.31;4954580;28;105226;-69
2023/01/01 04:14:48;;;;;;;29.90;23.00;;;;;;;4.38;100.00;96841.50;4953574;28;105828;-69
2023/01/01 04:17:14;;;;;;;29.77;23.07;;;;;;;4.43;100.00;96836.47;4954069;28;101888;-69
2023/01/01 04:19:43;;;;;;;32.07;23.03;;;;;;;4.40;100.00;96848.19;4954150;28;104979;-69
2023/01/01 04:22:11;;;;;;;32.23;22.83;;;;;;;4.29;100.00;96853.22;4953395;28;105523;-69
2023/01/01 04:24:37;;;;;;;33.13;23.97;;;;;;;4.35;100.00;96858.53;4954211;28;101801;-69
2023/01/01 04:27:04;;;;;;;31.60;23.20;;;;;;;4.48;100.00;96855.88;4957071;28;103784;-69
2023/01/01 04:29:32;;;;;;;29.37;22.37;;;;;;;4.53;100.00;96861.38;4953654;28;101851;-69
2023/01/01 04:31:59;;;;;;;29.97;22.27;;;;;;;4.50;100.00;96858.34;4953884;28;104959;-69
2023/01/01 04:34:26;;;;;;;28.63;21.60;;;;;;;4.56;100.00;96866.25;4953687;28;105381;-69
2023/01/01 04:36:54;;;;;;;28.57;22.23;;;;;;;4.47;100.00;96874.56;4954043;28;101897;-69
2023/01/01 04:39:21;;;;;;;30.67;21.97;;;;;;;4.47;100.00;96874.56;4954052;28;104902;-69
2023/01/01 04:41:48;;;;;;;28.40;22.07;;;;;;;4.49;100.00;96867.25;4953054;28;105662;-69
2023/01/01 04:44:15;;;;;;;29.70;21.10;;;;;;;4.39;100.00;96882.63;4953795;28;102216;-69
2023/01/01 04:46:42;;;;;;;29.77;22.53;;;;;;;4.35;100.00;96884.03;4953818;28;105281;-69
2023/01/01 04:49:09;;;;;;;30.87;22.57;;;;;;;4.30;100.00;96889.06;4974362;28;102848;-69
2023/01/01 04:51:36;;;;;;;30.97;22.83;;;;;;;4.22;100.00;96886.63;4953420;28;105299;-69
2023/01/01 04:54:04;;;;;;;30.03;21.73;;;;;;;4.19;100.00;96890.47;4952912;28;105614;-69
2023/01/01 04:56:31;;;;;;;31.43;21.93;;;;;;;4.09;100.00;96894.50;4953806;28;101851;-69
2023/01/01 04:58:58;;;;;;;30.03;22.70;;;;;;;4.04;100.00;96899.53;4971089;28;102362;-69
2023/01/01 05:01:26;;;;;;;34.50;23.57;;;;;;;3.98;100.00;96900.34;4953044;28;105554;-69
2023/01/01 05:03:54;;;;;;;30.80;23.53;;;;;;;4.04;100.00;96899.53;4953435;28;101879;-69
2023/01/01 05:06:21;;;;;;;29.67;22.63;;;;;;;3.82;100.00;96895.41;4953572;28;104959;-69
2023/01/01 05:08:50;;;;;;;28.67;21.27;;;;;;;3.91;100.00;96902.94;4952737;28;105449;-69
2023/01/01 05:11:21;;;;;;;29.53;21.53;;;;;;;3.77;100.00;96897.81;4956791;28;101860;-69
2023/01/01 05:13:50;;;;;;;31.43;23.37;;;;;;;3.71;100.00;96909.91;4952368;28;104976;-69
2023/01/01 05:16:19;;;;;;;28.67;21.57;;;;;;;3.59;100.00;96914.09;4953380;28;101895;-69
2023/01/01 05:18:46;;;;;;;32.97;21.63;;;;;;;3.67;100.00;96907.88;4971197;28;102818;-69
2023/01/01 05:21:16;;;;;;;30.53;22.53;;;;;;;3.56;100.00;96908.44;4952702;28;105420;-69
2023/01/01 05:23:43;;;;;;;32.60;23.47;;;;;;;3.55;100.00;96912.06;4970495;28;101814;-69
2023/01/01 05:26:11;;;;;;;35.07;23.73;;;;;;;3.56;100.00;96903.16;4970970;28;102849;-69
2023/01/01 05:28:41;;;;;;;33.93;25.13;;;;;;;3.62;100.00;96911.09;4969893;28;102610;-69
2023/01/01 05:31:10;;;;;;;32.30;24.60;;;;;;;3.59;100.00;96913.28;4953229;28;101863;-69
2023/01/01 05:33:38;;;;;;;34.87;25.83;;;;;;;3.69;100.00;96919.00;4955841;28;104944;-69
2023/01/01 05:36:08;;;;;;;35.63;26.17;;;;;;;3.76;100.00;96919.88;4970830;28;102293;-69
2023/01/01 05:38:35;;;;;;;37.00;27.17;;;;;;;3.70;100.00;96912.72;4970274;28;103322;-69
2023/01/01 05:41:06;;;;;;;33.63;26.10;;;;;;;3.76;100.00;96922.50;4952628;28;104270;-69
2023/01/01 05:43:33;;;;;;;32.23;23.90;;;;;;;3.69;100.00;96913.75;4952931;28;101832;-69
2023/01/01 05:46:04;;;;;;;32.77;23.77;;;;;;;3.77;100.00;96919.66;4970642;28;102330;-69
2023/01/01 05:48:30;;;;;;;32.53;24.13;;;;;;;3.79;100.00;96920.28;4952267;28;104991;-69
2023/01/01 05:51:02;;;;;;;34.03;25.23;;;;;;;3.61;100.00;96913.91;4952862;28;101966;-69
2023/01/01 05:53:30;;;;;;;28.53;21.83;;;;;;;3.57;100.00;96916.13;4952857;28;105551;-69
2023/01/01 05:55:57;;;;;;;31.53;22.40;;;;;;;3.65;100.00;96921.22;4955410;28;106075;-69
2023/01/01 05:58:24;;;;;;;32.87;22.23;;;;;;;3.62;100.00;96924.25;4952753;28;105457;-69
2023/01/01 06:00:51;;;;;;;28.50;21.50;;;;;;;3.58;100.00;96925.63;4969609;28;102507;-69
2023/01/01 06:03:19;;;;;;;31.40;22.27;;;;;;;3.51;100.00;96929.22;4952347;28;101862;-69
2023/01/01 06:05:46;;;;;;;32.50;23.23;;;;;;;3.42;100.00;96933.00;4952774;28;104839;-69
2023/01/01 06:08:13;;;;;;;29.60;23.03;;;;;;;3.51;100.00;96935.31;4951618;28;105483;-69
2023/01/01 06:10:41;;;;;;;28.33;22.30;;;;;;;3.38;100.00;96937.84;4952207;28;101879;-69
2023/01/01 06:13:09;;;;;;;28.70;22.13;;;;;;;3.31;100.00;96939.63;4952484;28;105148;-69
2023/01/01 06:15:36;;;;;;;31.60;24.00;;;;;;;3.28;100.00;96931.31;4952340;28;105450;-69
2023/01/01 06:18:02;;;;;;;36.90;24.13;;;;;;;3.22;100.00;96929.44;4955910;28;101891;-69
2023/01/01 06:20:31;;;;;;;35.27;24.37;;;;;;;3.30;100.00;96926.66;4951789;28;105062;-69
2023/01/01 06:22:58;;;;;;;32.13;24.33;;;;;;;3.31;100.00;96923.84;4952220;28;102094;-69
2023/01/01 06:25:25;;;;;;;32.53;24.33;;;;;;;3.25;100.00;96923.78;4951489;28;104858;-69
2023/01/01 06:27:51;;;;;;;33.97;24.93;;;;;;;3.15;100.00;96923.31;4951319;28;104020;-69
2023/01/01 06:30:18;;;;;;;35.33;25.97;;;;;;;3.10;100.00;96934.41;4952408;28;101937;-69
2023/01/01 06:32:45;;;;;;;37.90;25.80;;;;;;;3.16;100.00;96930.22;4951809;28;104928;-69
2023/01/01 06:35:12;;;;;;;35.10;25.50;;;;;;;3.20;100.00;96928.81;4951463;28;105202;-69
2023/01/01 06:37:41;;;;;;;35.23;26.20;;;;;;;3.10;100.00;96934.41;4955914;28;101879;-69
2023/01/01 06:40:09;;;;;;;34.77;26.23;;;;;;;3.12;100.00;96935.00;4951718;28;105048;-69
2023/01/01 06:42:36;;;;;;;36.33;26.20;;;;;;;3.19;100.00;96924.56;4952326;28;101904;-69
2023/01/01 06:45:03;;;;;;;37.33;26.30;;;;;;;3.15;100.00;96928.56;4952115;28;104867;-69
2023/01/01 06:47:33;;;;;;;36.17;25.87;;;;;;;3.19;100.00;96925.38;4951257;28;105468;-69
2023/01/01 06:50:00;;;;;;;34.57;25.30;;;;;;;3.20;100.00;96936.69;4952031;28;101754;-69
2023/01/01 06:52:27;;;;;;;39.10;26.63;;;;;;;3.13;100.00;96944.56;4951882;28;104968;-69
2023/01/01 06:54:55;;;;;;;37.47;26.70;;;;;;;3.23;100.00;96942.38;4951285;28;105170;-69
2023/01/01 06:57:23;;;;;;;37.83;26.10;;;;;;;3.26;100.00;96942.00;4951976;28;102034;-69
2023/01/01 06:59:50;;;;;;;35.47;25.40;;;;;;;3.35;100.00;96940.03;4954702;28;105662;-69
2023/01/01 07:02:18;;;;;;;40.13;26.30;;;;;;;3.29;100.00;96943.44;4951516;28;101885;-69
2023/01/01 07:04:45;;;;;;;38.93;26.20;;;;;;;3.35;100.00;96940.03;4951969;28;104818;-69
2023/01/01 07:07:11;;;;;;;40.10;27.63;;;;;;;3.39;100.00;96942.09;4951119;28;103964;-69
2023/01/01 07:09:38;;;;;;;38.97;27.60;;;;;;;3.31;100.00;96944.88;4951285;28;101874;-69
2023/01/01 07:12:07;;;;;;;34.00;25.27;;;;;;;3.29;100.00;96951.31;4952045;28;103758;-68
2023/01/01 07:14:34;;;;;;;32.30;23.63;;;;;;;3.27;100.00;96948.09;4968757;28;103039;-68
2023/01/01 07:17:01;;;;;;;32.43;24.47;;;;;;;3.18;100.00;96954.47;4951672;28;101902;-68
2023/01/01 07:19:28;;;;;;;31.33;24.20;;;;;;;3.17;100.00;96950.22;4951593;28;104858;-68
2023/01/01 07:21:55;;;;;;;37.20;25.73;;;;;;;3.20;100.00;96958.53;4954310;28;105059;-68
2023/01/01 07:24:22;;;;;;;34.70;24.53;;;;;;;3.22;100.00;96958.34;4951511;28;105291;-68
2023/01/01 07:26:50;;;;;;;33.00;24.37;;;;;;;3.12;100.00;96963.91;4950989;28;105286;-68
2023/01/01 07:29:18;;;;;;;32.07;24.23;;;;;;;3.01;100.00;96955.75;4947721;28;101986;-68
2023/01/01 07:31:45;;;;;;;35.10;25.50;;;;;;;3.06;100.00;96958.63;4964669;28;105168;-68
2023/01/01 07:34:14;;;;;;;32.80;24.50;;;;;;;3.19;100.00;96956.09;4947270;28;105353;-68
2023/01/01 07:36:41;;;;;;;29.70;22.83;;;;;;;3.20;100.00;96960.34;4951182;28;101836;-68
2023/01/01 07:39:09;;;;;;;32.50;23.63;;;;;;;3.19;100.00;96972.69;4951683;28;104972;-68
2023/01/01 07:41:36;;;;;;;33.50;24.17;;;;;;;3.37;100.00;96974.81;4950974;28;105510;-68
2023/01/01 07:44:04;;;;;;;35.07;24.80;;;;;;;3.56;100.00;96974.16;4954861;28;101876;-68
2023/01/01 07:46:34;;;;;;;32.80;24.07;;;;;;;3.70;100.00;96966.16;4950828;28;105400;-68
2023/01/01 07:49:01;;;;;;;33.17;22.97;;;;;;;3.88;100.00;96973.53;4951656;28;101806;-68
2023/01/01 07:51:28;;;;;;;29.70;22.33;;;;;;;3.99;100.00;96970.38;4951231;28;105284;-68
2023/01/01 07:53:54;;;;;;;32.03;23.83;;;;;;;4.01;100.00;96978.88;4950419;28;105063;-68
2023/01/01 07:56:21;;;;;;;30.17;23.00;;;;;;;4.01;100.00;96981.50;4951388;28;101924;-68
2023/01/01 07:58:48;;;;;;;32.20;24.63;;;;;;;4.05;100.00;96982.75;4967581;28;104808;-68
2023/01/01 08:01:15;;;;;;;31.73;23.30;;;;;;;4.02;100.00;96991.00;4950786;28;105366;-68
2023/01/01 08:03:43;;;;;;;32.93;24.20;;;;;;;4.04;100.00;96987.19;4951166;28;101880;-68
2023/01/01 08:06:11;;;;;;;32.87;24.20;;;;;;;4.25;100.00;96994.97;4953809;28;103742;-68
2023/01/01 08:08:38;;;;;;;34.37;23.10;;;;;;;4.50;100.00;96984.72;4952329;28;101824;-68
2023/01/01 08:11:05;;;;;;;30.80;24.07;;;;;;;4.71;100.00;96984.59;4952497;28;102396;-68
2023/01/01 08:13:32;;;;;;;33.20;24.90;;;;;;;4.91;100.00;96993.38;4950441;28;105373;-68
2023/01/01 08:15:59;;;;;;;31.40;22.10;;;;;;;4.92;100.00;96995.78;4952487;28;101679;-68
2023/01/01 08:18:26;;;;;;;33.87;22.47;;;;;;;5.22;100.00;96988.31;4952694;28;101660;-68
2023/01/01 08:20:56;;;;;;;31.47;23.10;;;;;;;5.33;100.00;96987.69;4950186;28;105372;-68
2023/01/01 08:23:24;;;;;;;29.33;22.30;;;;;;;5.56;100.00;96999.47;4952115;28;101708;-68
2023/01/01 08:25:51;;;;;;;23.83;18.57;;;;;;;5.76;100.00;96989.72;4951074;28;105764;-68
2023/01/01 08:28:17;;;;;;;31.97;21.03;;;;;;;5.78;100.00;97000.06;4952940;28;101923;-68
2023/01/01 08:30:44;;;;;;;29.00;21.07;;;;;;;5.84;100.00;97005.34;4951863;28;102328;-68
2023/01/01 08:33:11;;;;;;;24.77;17.83;;;;;;;6.02;100.00;97009.97;4951558;28;102405;-68
2023/01/01 08:35:41;;;;;;;17.60;13.63;;;;;;;6.49;100.00;97009.66;4951632;28;101810;-68
2023/01/01 08:38:11;;;;;;;17.37;13.17;;;;;;;6.69;100.00;97016.47;4942175;28;102444;-68
2023/01/01 08:40:38;;;;;;;18.37;14.50;;;;;;;7.05;100.00;97007.91;4931835;28;103041;-68
2023/01/01 08:43:06;;;;;;;19.10;14.30;;;;;;;7.06;100.00;97013.00;4930925;28;101886;-68
2023/01/01 08:45:33;;;;;;;22.60;17.50;;;;;;;7.21;100.00;97007.41;4932406;28;102889;-68
2023/01/01 08:48:00;;;;;;;19.87;14.77;;;;;;;7.45;100.00;97009.25;4932971;28;105882;-68
2023/01/01 08:50:27;;;;;;;19.53;15.37;;;;;;;7.76;100.00;97012.66;4931237;28;103873;-68
2023/01/01 08:52:55;;;;;;;18.20;13.50;;;;;;;8.08;100.00;97010.72;4930260;28;104355;-68
2023/01/01 08:55:23;;;;;;;17.33;11.77;;;;;;;8.16;100.00;97013.06;4932145;28;102208;-69
2023/01/01 08:57:50;;;;;;;15.67;12.70;;;;;;;8.21;100.00;97023.84;4931018;28;104054;-69
2023/01/01 09:00:17;;;;;;;16.43;12.50;;;;;;;8.40;100.00;97025.50;4930382;28;105746;-68
2023/01/01 09:02:44;;;;;;;15.67;11.57;;;;;;;8.55;100.00;97023.25;4932273;28;101844;-69
2023/01/01 09:05:11;;;;;;;14.90;11.23;;;;;;;8.91;100.00;97023.22;4931755;28;102297;-69
2023/01/01 09:07:38;;;;;;;14.83;11.83;;;;;;;9.17;100.00;97028.19;4931619;28;102665;-68
2023/01/01 09:10:06;;;;;;;13.73;11.07;;;;;;;9.47;100.00;97023.63;4935457;28;101817;-69
2023/01/01 09:12:35;;;;;;;12.50;10.00;;;;;;;9.67;100.00;97017.00;4931421;28;103062;-69
2023/01/01 09:15:06;;;;;;;13.77;10.73;;;;;;;9.84;100.00;97028.56;4931757;28;101792;-68
2023/01/01 09:17:32;;;;;;;14.27;10.80;;;;;;;10.19;100.00;97034.69;4930669;28;105692;-68
2023/01/01 09:19:59;;;;;;;12.47;9.63;;;;;;;10.37;100.00;97039.09;4931246;28;103189;-69
2023/01/01 09:22:27;;;;;;;11.43;9.50;;;;;;;10.51;100.00;97041.25;4931318;28;101907;-68
2023/01/01 09:24:54;;;;;;;10.30;7.57;;;;;;;10.63;100.00;97042.03;4931595;28;104434;-68
2023/01/01 09:27:21;;;;;;;9.80;8.23;;;;;;;10.84;100.00;97041.41;4931967;28;102556;-68
2023/01/01 09:29:49;;;;;;;10.67;8.73;;;;;;;10.93;100.00;97047.16;4968081;28;101863;-68
2023/01/01 09:32:17;;;;;;;9.37;7.43;;;;;;;11.11;100.00;97036.34;4956855;28;105175;-68
2023/01/01 09:34:44;;;;;;;6.83;5.50;;;;;;;11.38;100.00;97034.72;4953936;28;102434;-68
2023/01/01 09:37:11;;;;;;;5.47;4.80;;;;;;;11.58;100.00;97043.06;4971641;28;102284;-68
2023/01/01 09:39:38;;;;;;;6.23;4.50;;;;;;;11.82;100.00;97049.91;4970818;28;102597;-68
2023/01/01 09:42:18;;;;;;;3.87;3.00;;;;;;;12.07;100.00;97042.31;4953674;28;102068;-68
2023/01/01 09:44:58;;;;;;;3.40;3.10;;;;;;;12.37;100.00;97040.09;4971753;28;102355;-68
2023/01/01 09:47:30;;;;;;;2.83;2.63;;;;;;;12.42;100.00;97040.16;4970796;28;102574;-68
2023/01/01 09:50:03;;;;;;;2.73;2.50;;;;;;;12.59;100.00;97035.59;4971619;28;101708;-68
2023/01/01 09:52:40;;;;;;;3.10;2.70;;;;;;;12.77;100.00;97032.63;4953554;28;105748;-68
2023/01/01 09:55:16;;;;;;;2.77;2.57;;;;;;;12.87;100.00;97030.06;4973944;28;102696;-68
2023/01/01 09:57:43;;;;;;;2.17;1.97;;;;;;;12.95;100.00;97037.63;4971177;28;102313;-68
2023/01/01 10:00:17;;;;;;;2.13;1.93;;;;;;;13.05;100.00;97035.94;4969609;28;103157;-68
2023/01/01 10:02:58;;;;;;;2.23;2.03;;;;;;;13.19;100.00;97036.34;4971130;28;101973;-68
2023/01/01 10:05:33;;;;;;;2.77;2.20;;;;;;;13.26;100.00;97040.44;4971292;28;102302;-68
2023/01/01 10:08:07;;;;;;;2.43;2.10;;;;;;;13.27;100.00;97031.38;4970367;28;102644;-68
2023/01/01 10:10:40;;;;;;;2.23;2.03;;;;;;;13.40;100.00;97024.84;4971135;28;101688;-68
2023/01/01 10:13:20;;;;;;;2.90;2.43;;;;;;;13.53;100.00;97029.75;4971106;28;102366;-69
2023/01/01 10:15:56;;;;;;;2.40;2.20;;;;;;;13.69;100.00;97034.97;4952594;28;105517;-66
2023/01/01 10:18:26;;;;;;;2.07;1.97;;;;;;;13.75;100.00;97039.34;4940208;28;101884;-62
2023/01/01 10:21:02;;;;;;;1.73;1.63;;;;;;;13.81;100.00;97030.28;4951134;28;104843;-66
2023/01/01 10:23:33;;;;;;;2.00;1.80;;;;;;;13.92;100.00;97033.84;4952430;28;102115;-66
2023/01/01 10:26:08;;;;;;;2.17;1.90;;;;;;;14.04;100.00;97034.47;4960029;28;105356;-64
2023/01/01 10:28:43;;;;;;;2.20;2.00;;;;;;;13.96;100.00;97041.09;4971630;28;103762;-66
2023/01/01 10:31:31;;;;;;;2.20;2.00;;;;;;;13.92;100.00;97036.50;4957041;28;102257;-66
2023/01/01 10:33:58;;;;;;;1.93;1.80;;;;;;;14.12;100.00;97032.13;4950614;28;105430;-62
2023/01/01 10:36:26;;;;;;;2.80;1.83;;;;;;;14.15;100.00;97034.28;4951758;28;105500;-71
2023/01/01 10:38:53;;;;;;;2.00;1.80;;;;;;;14.11;100.00;97032.41;4955612;28;101972;-66
2023/01/01 10:41:20;;;;;;;2.03;1.83;;;;;;;14.29;100.00;97018.63;4952113;28;104646;-62
2023/01/01 10:43:48;;;;;;;1.87;1.77;;;;;;;14.48;100.00;97011.78;4970087;28;101897;-65
2023/01/01 10:46:18;;;;;;;2.27;1.97;;;;;;;14.49;98.66;97008.84;4970679;28;102369;-68
2023/01/01 10:49:06;;;;;;;1.90;1.80;;;;;;;14.81;100.00;97006.03;4952223;28;105653;-66
2023/01/01 10:51:37;;;;;;;2.23;1.80;;;;;;;15.06;100.00;97003.47;4952491;28;101843;-72
2023/01/01 10:54:05;;;;;;;2.30;2.10;;;;;;;15.21;100.00;97000.84;4952353;28;104220;-72
2023/01/01 10:56:42;;;;;;;5.47;4.37;;;;;;;15.04;100.00;96998.38;4952285;28;105598;-72
2023/01/01 10:59:35;;;;;;;8.47;6.17;;;;;;;15.21;100.00;97000.84;4970055;28;101893;-68
2023/01/01 11:02:18;;;;;;;6.63;5.67;;;;;;;15.21;100.00;96990.91;4973351;28;102553;-65
2023/01/01 11:04:47;;;;;;;6.67;5.87;;;;;;;15.14;100.00;96997.59;4952189;28;102059;-67
2023/01/01 11:07:23;;;;;;;7.00;5.90;;;;;;;15.17;100.00;96989.84;4952222;28;105135;-65
2023/01/01 11:09:50;;;;;;;6.63;5.80;;;;;;;15.08;100.00;96979.88;4951984;28;105691;-65
2023/01/01 11:12:22;;;;;;;7.07;6.20;;;;;;;14.98;100.00;96980.69;4955759;28;101977;-72
2023/01/01 11:14:52;;;;;;;6.87;5.67;;;;;;;15.20;100.00;96975.13;4955577;28;105634;-72
2023/01/01 11:17:25;;;;;;;6.47;5.87;;;;;;;15.28;100.00;96963.88;4954783;28;105216;-71
2023/01/01 11:19:54;;;;;;;7.07;6.20;;;;;;;15.18;100.00;96969.19;4939298;28;101966;-65
2023/01/01 11:22:38;;;;;;;6.87;6.13;;;;;;;15.40;100.00;96961.78;4955535;28;105776;-68
2023/01/01 11:25:17;;;;;;;6.07;5.47;;;;;;;15.57;100.00;96957.78;4958505;28;105244;-71
2023/01/01 11:27:44;;;;;;;7.17;6.07;;;;;;;15.44;100.00;96952.13;4954561;28;104769;-66